createdAt,value
2018-02-03T00:02:05.693Z,3.20
2018-02-03T00:04:33.967Z,3.10
2018-02-03T00:07:02.252Z,3.10
2018-02-03T00:09:31.325Z,3.10
2018-02-03T00:12:00.350Z,3.10
2018-02-03T00:14:28.681Z,3.10
2018-02-03T00:16:56.963Z,3.20
2018-02-03T00:19:25.984Z,3.10
2018-02-03T00:21:55.105Z,3.10
2018-02-03T00:24:23.374Z,3.10
2018-02-03T00:26:51.607Z,3.10
2018-02-03T00:29:20.591Z,3.10
2018-02-03T00:31:48.950Z,3.00
2018-02-03T00:34:17.145Z,3.10
2018-02-03T00:36:45.440Z,3.10
2018-02-03T00:39:14.536Z,3.10
2018-02-03T00:41:43.501Z,3.10
2018-02-03T00:44:11.722Z,3.00
2018-02-03T00:46:39.972Z,3.10
2018-02-03T00:49:08.936Z,3.10
2018-02-03T00:51:37.180Z,3.10
2018-02-03T00:54:05.620Z,3.10
2018-02-03T00:56:34.701Z,3.10
2018-02-03T00:59:02.922Z,3.10
2018-02-03T01:01:31.168Z,3.20
2018-02-03T01:04:01.428Z,3.10
2018-02-03T01:06:29.664Z,3.10
2018-02-03T01:08:58.641Z,3.10
2018-02-03T01:11:26.832Z,3.20
2018-02-03T01:13:55.841Z,3.20
2018-02-03T01:16:24.831Z,3.20
2018-02-03T01:18:53.995Z,3.20
2018-02-03T01:21:22.380Z,3.20
2018-02-03T01:23:50.579Z,3.20
2018-02-03T01:26:19.544Z,3.10
2018-02-03T01:28:47.787Z,3.10
2018-02-03T01:31:15.992Z,3.10
2018-02-03T01:33:44.196Z,3.20
2018-02-03T01:36:13.212Z,3.10
2018-02-03T01:38:41.470Z,3.10
2018-02-03T01:41:10.428Z,3.10
2018-02-03T01:43:38.853Z,3.10
2018-02-03T01:46:07.103Z,3.10
2018-02-03T01:48:36.116Z,3.10
2018-02-03T01:51:05.081Z,3.10
2018-02-03T01:53:33.281Z,3.10
2018-02-03T01:56:01.487Z,3.10
2018-02-03T01:58:29.788Z,3.20
2018-02-03T02:00:57.980Z,3.20
2018-02-03T02:03:26.222Z,3.20
2018-02-03T02:05:55.564Z,3.20
2018-02-03T02:08:23.821Z,3.20
2018-02-03T02:10:52.085Z,3.20
2018-02-03T02:13:20.310Z,3.20
2018-02-03T02:15:49.280Z,3.20
2018-02-03T02:18:17.500Z,3.20
2018-02-03T02:20:45.716Z,3.20
2018-02-03T02:23:13.907Z,3.20
2018-02-03T02:25:42.104Z,3.30
2018-02-03T02:28:10.402Z,3.20
2018-02-03T02:30:38.698Z,3.20
2018-02-03T02:33:06.884Z,3.20
2018-02-03T02:35:35.127Z,3.20
2018-02-03T02:38:03.332Z,3.20
2018-02-03T02:40:31.521Z,3.20
2018-02-03T02:42:59.748Z,3.20
2018-02-03T02:45:28.268Z,3.20
2018-02-03T02:47:56.469Z,3.20
2018-02-03T02:50:24.760Z,3.20
2018-02-03T02:52:53.728Z,3.10
2018-02-03T02:55:22.049Z,3.10
2018-02-03T02:57:50.280Z,3.10
2018-02-03T03:00:18.502Z,3.10
2018-02-03T03:02:46.727Z,3.10
2018-02-03T03:05:14.956Z,3.10
2018-02-03T03:07:45.668Z,3.20
2018-02-03T03:10:14.708Z,3.10
2018-02-03T03:12:42.941Z,3.10
2018-02-03T03:15:11.142Z,3.20
2018-02-03T03:17:39.743Z,3.20
2018-02-03T03:20:07.988Z,3.10
2018-02-03T03:22:36.504Z,3.10
2018-02-03T03:25:04.713Z,3.10
2018-02-03T03:27:33.721Z,3.10
2018-02-03T03:30:02.752Z,3.10
2018-02-03T03:32:30.976Z,3.10
2018-02-03T03:34:59.244Z,3.10
2018-02-03T03:37:27.443Z,3.10
2018-02-03T03:39:55.665Z,3.10
2018-02-03T03:42:23.910Z,3.00
2018-02-03T03:44:52.104Z,3.10
2018-02-03T03:47:20.307Z,3.00
2018-02-03T03:49:48.556Z,3.00
2018-02-03T03:52:16.768Z,3.00
2018-02-03T03:54:44.996Z,3.00
2018-02-03T03:57:13.280Z,3.00
2018-02-03T03:59:41.612Z,3.00
2018-02-03T04:02:10.606Z,3.10
2018-02-03T04:07:13.651Z,3.10
2018-02-03T04:09:42.105Z,3.10
2018-02-03T04:12:10.312Z,3.10
2018-02-03T04:14:38.599Z,3.00
2018-02-03T04:17:06.840Z,3.10
2018-02-03T04:19:35.046Z,3.00
2018-02-03T04:22:03.303Z,3.10
2018-02-03T04:24:31.495Z,3.10
2018-02-03T04:26:59.710Z,3.00
2018-02-03T04:29:28.039Z,3.00
2018-02-03T04:31:56.242Z,3.00
2018-02-03T04:34:24.434Z,2.90
2018-02-03T04:36:52.716Z,2.90
2018-02-03T04:39:21.710Z,2.90
2018-02-03T04:41:49.896Z,2.90
2018-02-03T04:44:18.897Z,2.80
2018-02-03T04:46:47.106Z,2.80
2018-02-03T04:49:15.317Z,2.80
2018-02-03T04:51:43.544Z,2.80
2018-02-03T04:54:11.789Z,2.80
2018-02-03T04:56:40.892Z,2.80
2018-02-03T04:59:09.191Z,2.70
2018-02-03T05:01:37.440Z,2.80
2018-02-03T05:04:05.652Z,2.80
2018-02-03T05:06:33.916Z,2.70
2018-02-03T05:09:02.192Z,2.80
2018-02-03T05:11:30.482Z,2.80
2018-02-03T05:13:58.713Z,2.70
2018-02-03T05:16:27.680Z,2.70
2018-02-03T05:18:55.995Z,2.70
2018-02-03T05:21:24.231Z,2.70
2018-02-03T05:23:52.431Z,2.70
2018-02-03T05:28:52.156Z,2.70
2018-02-03T05:31:21.278Z,2.70
2018-02-03T05:33:49.560Z,2.70
2018-02-03T05:36:17.792Z,2.70
2018-02-03T05:38:46.003Z,2.70
2018-02-03T05:41:14.205Z,2.70
2018-02-03T05:43:43.656Z,2.80
2018-02-03T05:46:13.140Z,2.70
2018-02-03T05:48:41.436Z,2.70
2018-02-03T05:51:10.432Z,2.80
2018-02-03T05:53:39.432Z,2.80
2018-02-03T05:56:07.688Z,2.80
2018-02-03T05:58:35.921Z,2.80
2018-02-03T06:01:04.122Z,2.80
2018-02-03T06:03:32.357Z,2.80
2018-02-03T06:06:00.649Z,2.80
2018-02-03T06:08:29.268Z,2.80
2018-02-03T06:10:57.482Z,2.80
2018-02-03T06:13:25.848Z,2.80
2018-02-03T06:15:54.964Z,2.80
2018-02-03T06:18:23.184Z,2.70
2018-02-03T06:20:51.456Z,2.70
2018-02-03T06:23:19.666Z,2.80
2018-02-03T06:25:48.632Z,2.70
2018-02-03T06:28:16.908Z,2.70
2018-02-03T06:30:45.133Z,2.70
2018-02-03T06:33:14.125Z,2.60
2018-02-03T06:35:42.824Z,2.60
2018-02-03T06:38:11.249Z,2.50
2018-02-03T06:40:39.457Z,2.50
2018-02-03T06:43:08.604Z,2.50
2018-02-03T06:45:36.804Z,2.50
2018-02-03T06:48:05.045Z,2.50
2018-02-03T06:50:34.369Z,2.40
2018-02-03T06:53:03.400Z,2.40
2018-02-03T06:55:32.093Z,2.40
2018-02-03T06:58:01.077Z,2.50
2018-02-03T07:00:29.439Z,2.40
2018-02-03T07:02:57.665Z,2.40
2018-02-03T07:05:26.725Z,2.50
2018-02-03T07:07:55.153Z,2.50
2018-02-03T07:10:23.434Z,2.50
2018-02-03T07:12:51.812Z,2.40
2018-02-03T07:15:20.192Z,2.40
2018-02-03T07:17:48.588Z,2.40
2018-02-03T07:20:16.891Z,2.60
2018-02-03T07:22:45.116Z,2.60
2018-02-03T07:25:13.329Z,2.60
2018-02-03T07:27:42.493Z,2.60
2018-02-03T07:30:10.684Z,2.60
2018-02-03T07:32:38.900Z,2.70
2018-02-03T07:35:07.432Z,2.70
2018-02-03T07:37:35.681Z,2.70
2018-02-03T07:40:04.646Z,2.80
2018-02-03T07:42:32.896Z,2.80
2018-02-03T07:45:01.121Z,2.80
2018-02-03T07:47:30.257Z,2.80
2018-02-03T07:49:58.457Z,2.80
2018-02-03T07:52:27.140Z,2.90
2018-02-03T07:54:55.483Z,2.90
2018-02-03T07:57:23.956Z,2.90
2018-02-03T07:59:52.490Z,2.90
2018-02-03T08:02:20.720Z,2.90
2018-02-03T08:04:49.724Z,3.10
2018-02-03T08:07:17.940Z,3.00
2018-02-03T08:09:46.202Z,3.00
2018-02-03T08:12:14.432Z,3.00
2018-02-03T08:14:43.505Z,3.00
2018-02-03T08:17:11.752Z,3.00
2018-02-03T08:19:40.028Z,3.00
2018-02-03T08:22:08.245Z,3.00
2018-02-03T08:24:36.429Z,3.10
2018-02-03T08:27:05.460Z,3.10
2018-02-03T08:29:34.413Z,3.00
2018-02-03T08:32:02.639Z,3.00
2018-02-03T08:34:30.962Z,3.10
2018-02-03T08:36:59.592Z,3.20
2018-02-03T08:39:28.714Z,3.30
2018-02-03T08:41:57.014Z,3.30
2018-02-03T08:44:25.199Z,3.50
2018-02-03T08:46:53.421Z,3.70
2018-02-03T08:49:22.441Z,3.90
2018-02-03T08:51:51.403Z,3.90
2018-02-03T08:54:20.374Z,3.90
2018-02-03T08:56:48.640Z,3.80
2018-02-03T08:59:16.930Z,3.80
2018-02-03T09:01:45.188Z,3.80
2018-02-03T09:04:13.432Z,3.90
2018-02-03T09:06:41.759Z,4.00
2018-02-03T09:09:10.017Z,3.90
2018-02-03T09:11:38.248Z,4.00
2018-02-03T09:14:06.721Z,4.20
2018-02-03T09:16:34.909Z,4.50
2018-02-03T09:19:03.240Z,5.10
2018-02-03T09:21:31.512Z,5.30
2018-02-03T09:23:59.732Z,5.30
2018-02-03T09:26:28.052Z,5.50
2018-02-03T09:28:56.344Z,5.00
2018-02-03T09:31:24.550Z,4.90
2018-02-03T09:33:53.546Z,4.50
2018-02-03T09:36:22.587Z,4.30
2018-02-03T09:38:51.233Z,4.30
2018-02-03T09:41:19.564Z,4.10
2018-02-03T09:43:47.785Z,4.00
2018-02-03T09:46:17.125Z,3.90
2018-02-03T09:48:45.384Z,3.90
2018-02-03T09:51:14.393Z,3.90
2018-02-03T09:53:42.738Z,3.90
2018-02-03T09:56:11.838Z,3.90
2018-02-03T09:58:40.024Z,3.90
2018-02-03T10:01:08.988Z,3.90
2018-02-03T10:03:37.282Z,3.90
2018-02-03T10:06:05.534Z,4.10
2018-02-03T10:08:33.740Z,4.20
2018-02-03T10:11:02.787Z,4.20
2018-02-03T10:13:31.017Z,4.20
2018-02-03T10:16:00.000Z,4.70
2018-02-03T10:18:29.004Z,5.50
2018-02-03T10:20:58.054Z,6.00
2018-02-03T10:23:26.275Z,5.90
2018-02-03T10:25:55.384Z,5.30
2018-02-03T10:28:23.650Z,5.30
2018-02-03T10:30:53.618Z,4.80
2018-02-03T10:33:21.880Z,4.80
2018-02-03T10:35:50.102Z,5.20
2018-02-03T10:38:18.376Z,6.80
2018-02-03T10:40:46.636Z,7.20
2018-02-03T10:43:14.835Z,6.50
2018-02-03T10:45:43.101Z,6.00
2018-02-03T10:48:12.079Z,5.70
2018-02-03T10:50:40.352Z,5.70
2018-02-03T10:53:08.556Z,5.90
2018-02-03T10:55:37.004Z,6.00
2018-02-03T10:58:05.216Z,6.20
2018-02-03T11:00:39.110Z,6.30
2018-02-03T11:03:08.152Z,5.50
2018-02-03T11:05:36.359Z,5.40
2018-02-03T11:08:04.610Z,5.20
2018-02-03T11:10:32.796Z,5.20
2018-02-03T11:13:01.068Z,5.30
2018-02-03T11:15:29.568Z,5.20
2018-02-03T11:17:57.990Z,4.90
2018-02-03T11:20:26.163Z,4.90
2018-02-03T11:22:55.819Z,4.90
2018-02-03T11:25:24.010Z,4.80
2018-02-03T11:27:52.322Z,5.00
2018-02-03T11:30:20.581Z,5.00
2018-02-03T11:32:48.780Z,5.30
2018-02-03T11:35:17.112Z,5.30
2018-02-03T11:37:45.494Z,5.10
2018-02-03T11:40:13.690Z,5.00
2018-02-03T11:42:41.976Z,4.80
2018-02-03T11:45:10.303Z,5.00
2018-02-03T11:47:39.320Z,5.20
2018-02-03T11:50:07.666Z,5.10
2018-02-03T11:52:36.694Z,4.70
2018-02-03T11:55:09.760Z,4.70
2018-02-03T11:57:38.814Z,4.50
2018-02-03T12:00:07.024Z,4.50
2018-02-03T12:02:36.020Z,3.90
2018-02-03T12:05:05.484Z,3.60
2018-02-03T12:07:33.811Z,3.60
2018-02-03T12:10:02.843Z,3.70
2018-02-03T12:12:31.064Z,3.70
2018-02-03T12:14:59.297Z,4.30
2018-02-03T12:17:27.529Z,4.90
2018-02-03T12:19:56.837Z,4.90
2018-02-03T12:22:25.808Z,4.80
2018-02-03T12:24:54.084Z,4.80
2018-02-03T12:29:55.060Z,4.70
2018-02-03T12:32:24.044Z,4.60
2018-02-03T12:34:53.036Z,4.80
2018-02-03T12:37:22.044Z,4.70
2018-02-03T12:39:51.005Z,5.00
2018-02-03T12:42:19.248Z,5.00
2018-02-03T12:44:47.740Z,5.00
2018-02-03T12:47:15.907Z,4.90
2018-02-03T12:49:44.116Z,5.10
2018-02-03T12:52:12.352Z,5.00
2018-02-03T12:54:40.576Z,5.00
2018-02-03T12:57:08.778Z,4.70
2018-02-03T12:59:37.080Z,4.70
2018-02-03T13:02:05.392Z,5.00
2018-02-03T13:04:35.304Z,4.90
2018-02-03T13:07:03.525Z,4.90
2018-02-03T13:09:31.720Z,4.90
2018-02-03T13:11:59.941Z,4.70
2018-02-03T13:14:28.192Z,4.60
2018-02-03T13:16:56.416Z,4.70
2018-02-03T13:19:24.688Z,4.70
2018-02-03T13:21:52.995Z,4.70
2018-02-03T13:24:21.272Z,5.00
2018-02-03T13:26:49.577Z,5.00
2018-02-03T13:29:17.809Z,5.10
2018-02-03T13:31:46.094Z,5.10
2018-02-03T13:34:14.378Z,4.90
2018-02-03T13:39:18.809Z,4.70
2018-02-03T13:41:47.049Z,4.50
2018-02-03T13:44:15.228Z,4.50
2018-02-03T13:46:44.228Z,4.20
2018-02-03T13:49:13.199Z,4.10
2018-02-03T13:51:41.451Z,4.00
2018-02-03T13:54:10.902Z,4.10
2018-02-03T13:56:40.672Z,4.20
2018-02-03T13:59:10.393Z,4.30
2018-02-03T14:01:38.663Z,4.30
2018-02-03T14:04:06.864Z,4.40
2018-02-03T14:06:35.128Z,4.60
2018-02-03T14:09:04.849Z,4.50
2018-02-03T14:11:33.885Z,4.70
2018-02-03T14:14:02.142Z,4.60
2018-02-03T14:16:30.453Z,4.70
2018-02-03T14:18:58.676Z,4.60
2018-02-03T14:21:27.668Z,4.40
2018-02-03T14:24:02.357Z,4.20
2018-02-03T14:26:30.561Z,4.20
2018-02-03T14:28:58.956Z,4.30
2018-02-03T14:31:27.277Z,4.30
2018-02-03T14:33:55.485Z,4.30
2018-02-03T14:36:23.680Z,4.20
2018-02-03T14:38:52.680Z,4.10
2018-02-03T14:41:20.893Z,4.10
2018-02-03T14:43:49.292Z,4.10
2018-02-03T14:46:17.631Z,4.10
2018-02-03T14:48:45.841Z,4.00
2018-02-03T14:51:14.092Z,4.00
2018-02-03T14:53:43.356Z,3.80
2018-02-03T14:56:12.633Z,3.70
2018-02-03T14:58:40.793Z,3.70
2018-02-03T15:01:09.039Z,3.40
2018-02-03T15:03:37.376Z,3.00
2018-02-03T15:06:05.580Z,2.70
2018-02-03T15:08:34.596Z,2.50
2018-02-03T15:11:02.819Z,2.50
2018-02-03T15:13:31.060Z,2.20
2018-02-03T15:15:59.307Z,1.90
2018-02-03T15:18:28.312Z,1.40
2018-02-03T15:20:56.509Z,1.40
2018-02-03T15:23:24.739Z,1.30
2018-02-03T15:25:53.715Z,1.10
2018-02-03T15:28:21.921Z,1.10
2018-02-03T15:30:52.128Z,1.10
2018-02-03T15:33:21.118Z,1.10
2018-02-03T15:35:50.248Z,1.20
2018-02-03T15:38:18.471Z,1.20
2018-02-03T15:40:46.685Z,1.20
2018-02-03T15:43:14.880Z,1.30
2018-02-03T15:45:43.916Z,1.30
2018-02-03T15:48:12.140Z,1.30
2018-02-03T15:50:40.411Z,1.30
2018-02-03T15:53:08.629Z,1.40
2018-02-03T15:55:36.848Z,1.30
2018-02-03T15:58:05.283Z,1.30
2018-02-03T16:00:33.535Z,1.40
2018-02-03T16:03:01.740Z,1.40
2018-02-03T16:05:30.398Z,1.40
2018-02-03T16:07:59.065Z,1.50
2018-02-03T16:10:27.371Z,1.40
2018-02-03T16:12:55.610Z,1.50
2018-02-03T16:15:23.984Z,1.50
2018-02-03T16:17:52.376Z,1.50
2018-02-03T16:20:21.364Z,1.60
2018-02-03T16:22:49.603Z,1.50
2018-02-03T16:25:17.800Z,1.50
2018-02-03T16:27:46.005Z,1.40
2018-02-03T16:30:14.212Z,1.50
2018-02-03T16:32:44.417Z,1.60
2018-02-03T16:35:12.621Z,1.50
2018-02-03T16:37:40.944Z,1.60
2018-02-03T16:40:09.141Z,1.60
2018-02-03T16:42:37.384Z,1.60
2018-02-03T16:45:05.622Z,1.60
2018-02-03T16:47:34.584Z,1.70
2018-02-03T16:50:02.791Z,1.60
2018-02-03T16:52:31.799Z,1.40
2018-02-03T16:55:00.009Z,1.40
2018-02-03T16:57:28.208Z,1.40
2018-02-03T16:59:56.475Z,1.40
2018-02-03T17:02:24.713Z,1.40
2018-02-03T17:04:53.102Z,1.30
2018-02-03T17:07:22.187Z,1.20
2018-02-03T17:09:50.383Z,1.20
2018-02-03T17:12:18.608Z,1.10
2018-02-03T17:14:46.876Z,1.10
2018-02-03T17:17:15.872Z,1.00
2018-02-03T17:19:44.076Z,1.00
2018-02-03T17:22:13.124Z,0.90
2018-02-03T17:24:42.291Z,0.90
2018-02-03T17:27:10.484Z,0.80
2018-02-03T17:29:38.716Z,0.80
2018-02-03T17:32:07.716Z,0.70
2018-02-03T17:34:36.834Z,0.70
2018-02-03T17:37:10.769Z,0.70
2018-02-03T17:39:39.120Z,0.70
2018-02-03T17:42:07.497Z,0.70
2018-02-03T17:44:35.819Z,0.70
2018-02-03T17:47:05.624Z,0.70
2018-02-03T17:49:33.859Z,0.70
2018-02-03T17:52:02.136Z,0.70
2018-02-03T17:54:31.104Z,0.60
2018-02-03T17:57:05.827Z,0.60
2018-02-03T17:59:34.029Z,0.50
2018-02-03T18:02:02.276Z,0.50
2018-02-03T18:04:30.564Z,0.50
2018-02-03T18:07:05.588Z,0.60
2018-02-03T18:09:33.826Z,0.60
2018-02-03T18:12:02.028Z,0.60
2018-02-03T18:14:30.308Z,0.60
2018-02-03T18:16:58.696Z,0.60
2018-02-03T18:19:26.981Z,0.60
2018-02-03T18:21:56.040Z,0.60
2018-02-03T18:24:24.336Z,0.50
2018-02-03T18:26:52.666Z,0.50
2018-02-03T18:29:21.602Z,0.60
2018-02-03T18:31:49.964Z,0.60
2018-02-03T18:34:18.165Z,0.60
2018-02-03T18:36:46.448Z,0.70
2018-02-03T18:39:15.433Z,0.60
2018-02-03T18:41:43.638Z,0.60
2018-02-03T18:44:12.216Z,0.70
2018-02-03T18:46:40.469Z,0.70
2018-02-03T18:49:08.666Z,0.70
2018-02-03T18:51:37.651Z,0.60
2018-02-03T18:54:06.717Z,0.50
2018-02-03T18:56:35.073Z,0.50
2018-02-03T18:59:03.337Z,0.60
2018-02-03T19:01:31.585Z,0.60
2018-02-03T19:04:00.565Z,0.60
2018-02-03T19:06:29.537Z,0.60
2018-02-03T19:08:57.816Z,0.60
2018-02-03T19:11:26.066Z,0.60
2018-02-03T19:13:54.344Z,0.60
2018-02-03T19:16:22.645Z,0.60
2018-02-03T19:18:50.860Z,0.60
2018-02-03T19:21:19.068Z,0.60
2018-02-03T19:23:47.349Z,0.50
2018-02-03T19:26:15.637Z,0.50
2018-02-03T19:28:43.869Z,0.40
2018-02-03T19:31:12.168Z,0.50
2018-02-03T19:33:40.368Z,0.40
2018-02-03T19:36:08.639Z,0.40
2018-02-03T19:38:36.893Z,0.40
2018-02-03T19:41:05.116Z,0.40
2018-02-03T19:43:34.095Z,0.40
2018-02-03T19:46:02.358Z,0.40
2018-02-03T19:48:30.592Z,0.40
2018-02-03T19:50:58.810Z,0.50
2018-02-03T19:53:27.060Z,0.40
2018-02-03T19:55:55.285Z,0.40
2018-02-03T19:58:23.497Z,0.40
2018-02-03T20:00:51.725Z,0.40
2018-02-03T20:03:20.103Z,0.30
2018-02-03T20:05:48.322Z,0.20
2018-02-03T20:08:16.559Z,0.20
2018-02-03T20:10:45.011Z,0.20
2018-02-03T20:13:13.196Z,0.30
2018-02-03T20:15:41.537Z,0.20
2018-02-03T20:18:09.777Z,0.20
2018-02-03T20:20:38.919Z,0.20
2018-02-03T20:23:07.170Z,0.20
2018-02-03T20:25:35.392Z,0.10
2018-02-03T20:28:04.106Z,0.10
2018-02-03T20:30:33.533Z,0.10
2018-02-03T20:33:01.752Z,0.00
2018-02-03T20:35:29.985Z,-0.10
2018-02-03T20:37:58.433Z,-0.10
2018-02-03T20:40:28.634Z,-0.20
2018-02-03T20:42:56.912Z,-0.20
2018-02-03T20:45:25.181Z,-0.30
2018-02-03T20:47:53.452Z,-0.20
2018-02-03T20:50:21.764Z,-0.20
2018-02-03T20:52:50.799Z,-0.20
2018-02-03T20:55:19.004Z,-0.20
2018-02-03T20:57:47.282Z,-0.30
2018-02-03T21:00:16.578Z,-0.30
2018-02-03T21:02:44.907Z,-0.30
2018-02-03T21:05:13.130Z,-0.30
2018-02-03T21:07:41.388Z,-0.20
2018-02-03T21:10:09.667Z,-0.10
2018-02-03T21:12:38.680Z,-0.20
2018-02-03T21:15:07.166Z,-0.20
2018-02-03T21:17:35.376Z,-0.30
2018-02-03T21:20:04.412Z,-0.10
2018-02-03T21:25:01.750Z,-0.20
2018-02-03T21:27:30.879Z,-0.30
2018-02-03T21:29:59.180Z,-0.40
2018-02-03T21:32:27.428Z,-0.30
2018-02-03T21:34:55.641Z,-0.40
2018-02-03T21:37:23.876Z,-0.40
2018-02-03T21:39:52.185Z,-0.40
2018-02-03T21:42:20.452Z,-0.40
2018-02-03T21:44:48.658Z,-0.50
2018-02-03T21:47:17.086Z,-0.50
2018-02-03T21:49:45.360Z,-0.50
2018-02-03T21:52:14.318Z,-0.50
2018-02-03T21:54:43.379Z,-0.50
2018-02-03T21:57:11.664Z,-0.60
2018-02-03T21:59:39.860Z,-0.60
2018-02-03T22:02:08.140Z,-0.60
2018-02-03T22:04:37.148Z,-0.50
2018-02-03T22:07:06.122Z,-0.60
2018-02-03T22:09:36.088Z,-0.60
2018-02-03T22:12:04.686Z,-0.60
2018-02-03T22:14:32.948Z,-0.60
2018-02-03T22:17:01.230Z,-0.60
2018-02-03T22:19:29.466Z,-0.70
2018-02-03T22:21:58.451Z,-0.70
2018-02-03T22:24:26.928Z,-0.70
2018-02-03T22:26:55.198Z,-0.70
2018-02-03T22:29:23.424Z,-0.60
2018-02-03T22:31:51.753Z,-0.60
2018-02-03T22:34:19.974Z,-0.60
2018-02-03T22:36:48.236Z,-0.60
2018-02-03T22:39:17.232Z,-0.80
2018-02-03T22:41:45.540Z,-0.80
2018-02-03T22:44:14.022Z,-0.80
2018-02-03T22:46:42.248Z,-0.80
2018-02-03T22:49:11.248Z,-0.80
2018-02-03T22:51:40.224Z,-0.90
2018-02-03T22:54:08.494Z,-0.90
2018-02-03T22:56:36.715Z,-0.90
2018-02-03T22:59:04.968Z,-1.00
2018-02-03T23:01:35.073Z,-0.90
2018-02-03T23:04:03.241Z,-0.90
2018-02-03T23:06:31.515Z,-0.90
2018-02-03T23:08:59.893Z,-0.90
2018-02-03T23:11:28.112Z,-1.00
2018-02-03T23:13:57.131Z,-1.00
2018-02-03T23:16:25.439Z,-1.10
2018-02-03T23:18:53.676Z,-1.10
2018-02-03T23:21:21.931Z,-1.10
2018-02-03T23:23:51.028Z,-1.20
2018-02-03T23:26:20.732Z,-1.20
2018-02-03T23:28:48.947Z,-1.20
2018-02-03T23:31:17.405Z,-1.10
2018-02-03T23:33:45.726Z,-1.20
2018-02-03T23:36:13.950Z,-1.30
2018-02-03T23:38:42.306Z,-1.30
2018-02-03T23:41:10.530Z,-1.30
2018-02-03T23:43:38.985Z,-1.40
2018-02-03T23:46:07.471Z,-1.40
2018-02-03T23:48:35.671Z,-1.40
2018-02-03T23:51:04.036Z,-1.40
2018-02-03T23:53:32.306Z,-1.40
2018-02-03T23:56:00.932Z,-1.40
2018-02-03T23:58:29.157Z,-1.40
